createdAt,value
2019-03-21T05:15:09.722Z,103046.46
2019-03-21T05:17:39.430Z,103049.20
2019-03-21T05:20:11.222Z,103043.14
2019-03-21T05:22:40.969Z,103045.02
2019-03-21T05:25:11.582Z,103042.91
2019-03-21T05:27:41.293Z,103049.72
2019-03-21T05:30:17.891Z,103057.19
2019-03-21T05:32:47.715Z,103049.16
2019-03-21T05:35:17.446Z,103061.44
2019-03-21T05:37:47.288Z,103061.85
2019-03-21T05:40:21.573Z,103056.66
2019-03-21T05:43:00.840Z,103058.44
2019-03-21T05:45:30.542Z,103052.28
2019-03-21T05:48:00.236Z,103051.09
2019-03-21T05:50:29.997Z,103060.61
2019-03-21T05:52:59.689Z,103056.13
2019-03-21T05:55:29.426Z,103058.66
2019-03-21T05:57:59.105Z,103055.95
2019-03-21T06:00:31.942Z,103051.56
2019-03-21T06:03:02.171Z,103051.95
2019-03-21T06:05:32.426Z,103062.80
2019-03-21T06:08:14.544Z,103063.27
2019-03-21T06:10:44.436Z,103063.57
2019-03-21T06:13:14.176Z,103065.44
2019-03-21T06:15:43.980Z,103070.92
2019-03-21T06:18:48.583Z,103069.50
2019-03-21T06:21:31.918Z,103071.16
2019-03-21T06:24:13.470Z,103080.31
2019-03-21T06:26:50.757Z,103078.09
2019-03-21T06:29:20.486Z,103080.61
2019-03-21T06:31:50.289Z,103076.98
2019-03-21T06:34:20.040Z,103079.62
2019-03-21T06:36:49.758Z,103079.34
2019-03-21T06:39:19.463Z,103080.55
2019-03-21T06:41:49.185Z,103084.66
2019-03-21T06:44:19.014Z,103082.81
2019-03-21T06:46:49.942Z,103088.92
2019-03-21T06:49:19.739Z,103094.68
2019-03-21T06:51:49.493Z,103097.34
2019-03-21T06:54:19.231Z,103098.55
2019-03-21T06:56:49.471Z,103104.84
2019-03-21T06:59:19.193Z,103097.59
2019-03-21T07:01:48.927Z,103100.55
2019-03-21T07:04:18.791Z,103102.53
2019-03-21T07:06:48.467Z,103097.58
2019-03-21T07:09:18.208Z,103095.27
2019-03-21T07:11:47.929Z,103097.28
2019-03-21T07:14:17.689Z,103100.61
2019-03-21T07:16:47.520Z,103090.91
2019-03-21T07:19:17.199Z,103086.76
2019-03-21T07:21:46.947Z,103085.97
2019-03-21T07:24:16.627Z,103084.37
2019-03-21T07:26:46.308Z,103089.17
2019-03-21T07:29:16.040Z,103089.30
2019-03-21T07:31:45.734Z,103089.66
2019-03-21T07:34:15.426Z,103090.35
2019-03-21T07:36:45.167Z,103093.55
2019-03-21T07:39:14.870Z,103098.28
2019-03-21T07:41:44.739Z,103095.45
2019-03-21T07:44:14.423Z,103098.09
2019-03-21T07:46:44.561Z,103096.20
2019-03-21T07:49:14.348Z,103092.56
2019-03-21T07:51:45.298Z,103086.29
2019-03-21T07:54:15.370Z,103086.02
2019-03-21T07:56:45.108Z,103085.52
2019-03-21T07:59:14.801Z,103090.84
2019-03-21T08:01:44.486Z,103091.33
2019-03-21T08:04:14.222Z,103093.31
2019-03-21T08:06:43.922Z,103098.31
2019-03-21T08:09:13.762Z,103097.23
2019-03-21T08:11:43.508Z,103090.52
2019-03-21T08:14:13.201Z,103093.46
2019-03-21T08:16:43.010Z,103086.42
2019-03-21T08:19:12.735Z,103090.25
2019-03-21T08:21:42.473Z,103089.62
2019-03-21T08:24:12.180Z,103097.17
2019-03-21T08:26:41.958Z,103086.96
2019-03-21T08:29:11.699Z,103092.28
2019-03-21T08:31:41.414Z,103094.98
2019-03-21T08:34:11.138Z,103100.44
2019-03-21T08:36:40.929Z,103097.41
2019-03-21T08:39:10.663Z,103095.30
2019-03-21T08:41:40.618Z,103098.80
2019-03-21T08:44:10.349Z,103104.96
2019-03-21T08:46:40.137Z,103103.12
2019-03-21T08:49:09.921Z,103107.73
2019-03-21T08:51:39.691Z,103111.28
2019-03-21T08:54:09.364Z,103111.63
2019-03-21T08:56:39.191Z,103107.45
2019-03-21T08:59:08.874Z,103103.68
2019-03-21T09:01:38.653Z,103108.36
2019-03-21T09:04:08.375Z,103107.84
2019-03-21T09:06:38.057Z,103099.02
2019-03-21T09:09:10.034Z,103101.59
2019-03-21T09:11:40.677Z,103100.22
2019-03-21T09:14:10.362Z,103099.71
2019-03-21T09:16:40.092Z,103098.16
2019-03-21T09:19:09.837Z,103095.00
2019-03-21T09:21:39.493Z,103097.14
2019-03-21T09:24:09.239Z,103095.81
2019-03-21T09:26:38.956Z,103099.58
2019-03-21T09:29:08.617Z,103097.12
2019-03-21T09:31:38.335Z,103100.94
2019-03-21T09:34:08.105Z,103097.34
2019-03-21T09:36:37.825Z,103103.42
2019-03-21T09:39:08.708Z,103095.20
2019-03-21T09:41:38.386Z,103093.92
2019-03-21T09:44:08.239Z,103099.52
2019-03-21T09:46:38.085Z,103095.31
2019-03-21T09:49:10.897Z,103096.42
2019-03-21T09:51:40.629Z,103085.23
2019-03-21T09:54:10.466Z,103094.31
2019-03-21T09:56:40.773Z,103092.16
2019-03-21T09:59:10.454Z,103090.61
2019-03-21T10:01:40.189Z,103096.88
2019-03-21T10:04:09.986Z,103089.42
2019-03-21T10:06:39.686Z,103088.86
2019-03-21T10:09:09.440Z,103090.27
2019-03-21T10:11:39.156Z,103093.36
2019-03-21T10:14:08.886Z,103097.30
2019-03-21T10:16:38.633Z,103096.66
2019-03-21T10:19:08.391Z,103097.87
2019-03-21T10:21:43.220Z,103095.06
2019-03-21T10:24:09.895Z,103094.61
2019-03-21T10:26:39.695Z,103102.17
2019-03-21T10:29:09.425Z,103099.62
2019-03-21T10:31:39.168Z,103100.94
2019-03-21T10:34:09.009Z,103102.91
2019-03-21T10:36:38.749Z,103098.89
2019-03-21T10:39:08.901Z,103102.65
2019-03-21T10:41:38.626Z,103105.41
2019-03-21T10:44:08.341Z,103124.06
2019-03-21T10:46:38.366Z,103112.39
2019-03-21T10:49:08.042Z,103098.41
2019-03-21T10:51:37.812Z,103099.03
2019-03-21T10:54:07.547Z,103102.59
2019-03-21T10:56:37.360Z,103104.27
2019-03-21T10:59:07.090Z,103099.20
2019-03-21T11:01:36.790Z,103101.77
2019-03-21T11:04:06.486Z,103105.66
2019-03-21T11:06:36.227Z,103106.37
2019-03-21T11:09:08.955Z,103107.09
2019-03-21T11:11:38.706Z,103103.20
2019-03-21T11:14:08.429Z,103102.23
2019-03-21T11:16:38.254Z,103104.48
2019-03-21T11:19:07.951Z,103108.61
2019-03-21T11:21:37.667Z,103103.02
2019-03-21T11:24:07.358Z,103106.45
2019-03-21T11:26:37.097Z,103105.91
2019-03-21T11:29:06.782Z,103107.86
2019-03-21T11:31:36.751Z,103093.75
2019-03-21T11:34:06.444Z,103100.19
2019-03-21T11:36:38.549Z,103095.31
2019-03-21T11:39:08.979Z,103093.67
2019-03-21T11:41:39.002Z,103096.23
2019-03-21T11:44:08.737Z,103091.63
2019-03-21T11:46:38.591Z,103092.44
2019-03-21T11:49:08.278Z,103090.14
2019-03-21T11:51:37.990Z,103088.10
2019-03-21T11:54:07.737Z,103085.53
2019-03-21T11:56:37.421Z,103084.08
2019-03-21T11:59:07.127Z,103088.30
2019-03-21T12:01:36.987Z,103090.58
2019-03-21T12:04:06.944Z,103083.63
2019-03-21T12:06:36.720Z,103085.59
2019-03-21T12:09:07.892Z,103088.08
2019-03-21T12:11:37.709Z,103086.76
2019-03-21T12:14:07.447Z,103086.68
2019-03-21T12:16:37.208Z,103083.59
2019-03-21T12:19:06.987Z,103084.87
2019-03-21T12:21:36.689Z,103074.22
2019-03-21T12:24:06.446Z,103059.63
2019-03-21T12:26:36.189Z,103063.33
2019-03-21T12:29:05.986Z,103063.74
2019-03-21T12:31:35.824Z,103064.24
2019-03-21T12:34:05.522Z,103061.51
2019-03-21T12:36:35.238Z,103056.38
2019-03-21T12:39:08.045Z,103053.09
2019-03-21T12:41:37.798Z,103039.48
2019-03-21T12:44:08.016Z,103047.67
2019-03-21T12:46:37.729Z,103044.22
2019-03-21T12:49:07.607Z,103047.39
2019-03-21T12:51:37.402Z,103044.37
2019-03-21T12:54:07.146Z,103049.52
2019-03-21T12:56:36.940Z,103049.49
2019-03-21T12:59:06.620Z,103046.23
2019-03-21T13:01:36.355Z,103041.16
2019-03-21T13:04:06.113Z,103039.42
2019-03-21T13:06:36.103Z,103037.46
2019-03-21T13:09:07.784Z,103032.46
2019-03-21T13:11:37.530Z,103030.77
2019-03-21T13:14:07.261Z,103035.61
2019-03-21T13:16:36.962Z,103027.91
2019-03-21T13:19:06.690Z,103016.64
2019-03-21T13:21:36.744Z,103020.85
2019-03-21T13:24:06.484Z,103016.70
2019-03-21T13:26:36.180Z,103017.98
2019-03-21T13:29:06.023Z,103013.80
2019-03-21T13:31:35.712Z,103008.24
2019-03-21T13:34:05.417Z,103006.33
2019-03-21T13:36:35.163Z,103007.87
2019-03-21T13:39:06.537Z,103012.05
2019-03-21T13:41:36.388Z,103015.22
2019-03-21T13:44:06.100Z,103009.66
2019-03-21T13:46:35.812Z,103011.94
2019-03-21T13:49:06.111Z,103004.59
2019-03-21T13:51:35.960Z,103000.84
2019-03-21T13:54:05.692Z,103002.14
2019-03-21T13:56:38.294Z,102994.14
2019-03-21T13:59:06.865Z,103000.80
2019-03-21T14:01:36.606Z,102988.34
2019-03-21T14:04:06.304Z,102986.70
2019-03-21T14:06:36.018Z,102993.50
2019-03-21T14:09:08.026Z,102988.19
2019-03-21T14:11:37.957Z,102983.34
2019-03-21T14:14:07.655Z,102984.66
2019-03-21T14:16:37.361Z,102972.05
2019-03-21T14:19:07.099Z,102970.06
2019-03-21T14:21:36.851Z,102962.34
2019-03-21T14:24:09.199Z,102966.24
2019-03-21T14:26:38.896Z,102964.14
2019-03-21T14:29:12.882Z,102958.66
2019-03-21T14:31:40.042Z,102961.83
2019-03-21T14:34:09.778Z,102962.98
2019-03-21T14:36:39.538Z,102961.31
2019-03-21T14:39:09.273Z,102960.73
2019-03-21T14:41:39.111Z,102965.80
2019-03-21T14:44:08.935Z,102961.06
2019-03-21T14:46:38.784Z,102950.37
2019-03-21T14:49:08.842Z,102951.62
2019-03-21T14:51:38.615Z,102950.52
2019-03-21T14:54:08.401Z,102951.88
2019-03-21T14:56:38.166Z,102950.19
2019-03-21T14:59:07.987Z,102950.94
2019-03-21T15:01:37.739Z,102950.12
2019-03-21T15:04:08.006Z,102951.41
2019-03-21T15:06:37.768Z,102956.36
2019-03-21T15:09:08.222Z,102956.31
2019-03-21T15:11:38.008Z,102963.91
2019-03-21T15:14:07.886Z,102958.59
2019-03-21T15:16:37.575Z,102956.97
2019-03-21T15:19:07.260Z,102957.66
2019-03-21T15:21:36.965Z,102953.31
2019-03-21T15:24:06.755Z,102955.22
2019-03-21T15:26:36.481Z,102953.77
2019-03-21T15:29:06.426Z,102942.45
2019-03-21T15:31:36.141Z,102947.45
2019-03-21T15:34:06.157Z,102948.98
2019-03-21T15:36:35.885Z,102948.17
2019-03-21T15:39:08.673Z,102946.43
2019-03-21T15:41:38.880Z,102950.70
2019-03-21T15:44:08.625Z,102956.63
2019-03-21T15:46:38.916Z,102966.15
2019-03-21T15:49:08.597Z,102950.77
2019-03-21T15:51:38.313Z,102954.19
2019-03-21T15:54:08.421Z,102952.09
2019-03-21T15:56:38.158Z,102961.40
2019-03-21T15:59:07.835Z,102958.25
2019-03-21T16:01:37.570Z,102955.84
2019-03-21T16:04:07.253Z,102945.45
2019-03-21T16:06:36.953Z,102943.78
2019-03-21T16:09:08.918Z,102946.64
2019-03-21T16:11:38.722Z,102950.22
2019-03-21T16:14:08.521Z,102946.30
2019-03-21T16:16:38.366Z,102940.88
2019-03-21T16:19:08.099Z,102938.50
2019-03-21T16:21:37.830Z,102939.75
2019-03-21T16:24:07.600Z,102936.73
2019-03-21T16:26:37.346Z,102944.27
2019-03-21T16:29:09.962Z,102945.80
2019-03-21T16:31:38.525Z,102938.27
2019-03-21T16:34:08.312Z,102943.68
2019-03-21T16:36:38.078Z,102943.20
2019-03-21T16:39:08.759Z,102937.69
2019-03-21T16:41:38.848Z,102934.95
2019-03-21T16:44:08.587Z,102930.36
2019-03-21T16:46:38.454Z,102935.23
2019-03-21T16:49:08.195Z,102942.16
2019-03-21T16:51:37.899Z,102949.79
2019-03-21T16:54:16.578Z,102942.03
2019-03-21T16:56:39.086Z,102939.78
2019-03-21T16:59:08.831Z,102944.92
2019-03-21T17:01:38.641Z,102952.49
2019-03-21T17:04:08.510Z,102942.73
2019-03-21T17:06:38.226Z,102944.36
2019-03-21T17:09:09.572Z,102941.69
2019-03-21T17:11:39.282Z,102944.43
2019-03-21T17:14:08.991Z,102945.22
2019-03-21T17:16:38.747Z,102942.71
2019-03-21T17:19:08.455Z,102946.72
2019-03-21T17:21:38.508Z,102951.85
2019-03-21T17:24:08.208Z,102950.79
2019-03-21T17:26:37.984Z,102953.65
2019-03-21T17:29:07.755Z,102958.06
2019-03-21T17:31:37.462Z,102956.80
2019-03-21T17:34:07.218Z,102961.03
2019-03-21T17:36:36.950Z,102962.96
2019-03-21T17:39:09.022Z,102968.19
2019-03-21T17:41:38.788Z,102966.93
2019-03-21T17:44:08.516Z,102966.03
2019-03-21T17:46:38.454Z,102969.69
2019-03-21T17:49:08.179Z,102975.27
2019-03-21T17:51:38.097Z,102974.44
2019-03-21T17:54:07.843Z,102975.91
2019-03-21T17:56:37.717Z,102980.95
2019-03-21T17:59:07.447Z,102988.09
2019-03-21T18:01:37.296Z,102981.31
2019-03-21T18:04:07.093Z,102977.36
2019-03-21T18:06:36.856Z,102990.59
2019-03-21T18:09:08.165Z,102994.72
2019-03-21T18:11:38.021Z,103002.03
2019-03-21T18:14:07.804Z,102998.23
2019-03-21T18:16:37.526Z,103000.31
2019-03-21T18:19:07.245Z,102998.31
2019-03-21T18:21:36.980Z,103005.48
2019-03-21T18:24:06.689Z,103007.41
2019-03-21T18:26:37.635Z,103011.34
2019-03-21T18:29:07.563Z,103012.98
2019-03-21T18:31:37.328Z,103012.58
2019-03-21T18:34:07.113Z,103016.55
2019-03-21T18:36:37.051Z,103012.87
2019-03-21T18:39:08.892Z,103014.33
2019-03-21T18:41:38.579Z,103015.35
2019-03-21T18:44:08.338Z,103020.63
2019-03-21T18:46:38.084Z,103019.47
2019-03-21T18:49:07.992Z,103013.88
2019-03-21T18:51:37.703Z,103016.30
2019-03-21T18:54:07.556Z,103010.00
2019-03-21T18:56:37.286Z,103012.70
2019-03-21T18:59:07.039Z,103011.39
2019-03-21T19:01:36.782Z,103014.86
2019-03-21T19:04:06.693Z,103020.60
2019-03-21T19:06:36.448Z,103022.36
2019-03-21T19:09:08.476Z,103019.10
2019-03-21T19:11:38.359Z,103022.05
2019-03-21T19:14:08.138Z,103026.56
2019-03-21T19:16:37.917Z,103023.64
2019-03-21T19:19:08.054Z,103023.16
2019-03-21T19:21:38.746Z,103026.95
2019-03-21T19:24:11.353Z,103027.39
2019-03-21T19:26:40.163Z,103034.88
2019-03-21T19:29:10.082Z,103028.02
2019-03-21T19:31:39.928Z,103025.44
2019-03-21T19:34:10.186Z,103025.64
2019-03-21T19:36:40.336Z,103029.17
2019-03-21T19:39:10.469Z,103031.75
2019-03-21T19:41:40.274Z,103031.50
2019-03-21T19:44:10.179Z,103026.19
2019-03-21T19:46:40.697Z,103030.00
2019-03-21T19:49:10.484Z,103024.81
2019-03-21T19:51:40.579Z,103027.87
2019-03-21T19:54:12.739Z,103029.52
2019-03-21T19:56:42.543Z,103033.68
2019-03-21T19:59:12.680Z,103026.53
2019-03-21T20:01:42.562Z,103021.66
2019-03-21T20:04:13.348Z,103034.36
2019-03-21T20:06:45.025Z,103036.73
2019-03-21T20:09:15.902Z,103031.96
2019-03-21T20:11:46.042Z,103031.03
2019-03-21T20:14:16.326Z,103030.06
2019-03-21T20:16:46.137Z,103026.59
2019-03-21T20:19:15.929Z,103020.70
2019-03-21T20:21:48.355Z,103019.66
2019-03-21T20:24:19.110Z,103018.69
2019-03-21T20:26:49.242Z,103020.58
2019-03-21T20:29:19.014Z,103017.52
2019-03-21T20:31:48.833Z,103023.09
2019-03-21T20:34:18.620Z,103022.67
2019-03-21T20:36:48.966Z,103030.06
2019-03-21T20:39:18.988Z,103028.88
2019-03-21T20:41:48.871Z,103030.81
2019-03-21T20:44:19.730Z,103035.94
2019-03-21T20:46:50.483Z,103033.52
2019-03-21T20:49:21.152Z,103032.95
2019-03-21T20:51:50.892Z,103033.85
2019-03-21T20:54:20.969Z,103031.50
2019-03-21T20:56:50.789Z,103035.02
2019-03-21T20:59:20.614Z,103033.44
2019-03-21T21:02:01.912Z,103029.23
2019-03-21T21:04:22.487Z,103030.49
2019-03-21T21:06:52.450Z,103031.31
2019-03-21T21:09:22.367Z,103040.61
2019-03-21T21:11:52.263Z,103040.16
2019-03-21T21:14:22.360Z,103034.19
2019-03-21T21:16:52.303Z,103025.23
2019-03-21T21:19:22.103Z,103027.70
2019-03-21T21:21:51.831Z,103030.53
2019-03-21T21:24:21.891Z,103025.12
2019-03-21T21:26:51.642Z,103023.36
2019-03-21T21:29:21.419Z,103034.94
2019-03-21T21:31:51.164Z,103029.51
2019-03-21T21:34:21.335Z,103022.13
2019-03-21T21:36:51.319Z,103027.17
2019-03-21T21:39:21.054Z,103025.27
2019-03-21T21:41:50.762Z,103029.44
2019-03-21T21:44:20.510Z,103022.20
2019-03-21T21:46:50.212Z,103024.07
2019-03-21T21:49:20.083Z,103026.65
2019-03-21T21:51:49.771Z,103033.55
2019-03-21T21:54:19.508Z,103033.48
2019-03-21T21:56:49.254Z,103036.47
2019-03-21T21:59:19.055Z,103039.86
2019-03-21T22:01:48.798Z,103037.89
2019-03-21T22:04:18.652Z,103036.09
2019-03-21T22:06:48.358Z,103034.05
2019-03-21T22:09:18.065Z,103023.06
2019-03-21T22:11:47.785Z,103019.37
2019-03-21T22:14:17.511Z,103021.35
2019-03-21T22:16:47.268Z,103029.78
2019-03-21T22:19:17.068Z,103033.94
2019-03-21T22:21:46.829Z,103017.69
2019-03-21T22:24:16.622Z,103011.64
2019-03-21T22:26:46.419Z,103007.06
2019-03-21T22:29:16.252Z,103009.55
2019-03-21T22:31:46.118Z,103016.27
2019-03-21T22:34:15.933Z,103015.75
2019-03-21T22:36:49.533Z,103015.67
2019-03-21T22:39:17.256Z,103017.28
2019-03-21T22:41:46.988Z,103018.10
2019-03-21T22:44:16.696Z,103018.25
2019-03-21T22:46:46.428Z,103016.50
2019-03-21T22:49:16.239Z,103021.61
2019-03-21T22:51:45.941Z,103014.82
2019-03-21T22:54:15.665Z,103012.24
2019-03-21T22:56:45.379Z,103010.00
2019-03-21T22:59:15.096Z,103003.06
2019-03-21T23:01:44.793Z,102996.01
2019-03-21T23:04:14.503Z,102999.59
2019-03-21T23:06:44.184Z,102985.67
2019-03-21T23:09:13.906Z,102987.84
2019-03-21T23:11:43.774Z,102990.59
2019-03-21T23:14:13.472Z,102991.08
2019-03-21T23:16:43.165Z,102987.50
2019-03-21T23:19:12.907Z,102984.44
2019-03-21T23:21:42.621Z,102983.06
2019-03-21T23:24:12.602Z,102980.00
2019-03-21T23:26:52.448Z,102981.71
2019-03-21T23:29:13.676Z,102973.24
2019-03-21T23:31:43.369Z,102971.68
2019-03-21T23:34:13.086Z,102972.61
2019-03-21T23:36:44.880Z,102969.14
2019-03-21T23:39:14.618Z,102972.20
2019-03-21T23:41:44.314Z,102969.22
2019-03-21T23:44:14.045Z,102970.48
2019-03-21T23:46:43.875Z,102976.12
2019-03-21T23:49:13.572Z,102969.66
2019-03-21T23:51:43.351Z,102970.74
2019-03-21T23:54:13.125Z,102971.42
2019-03-21T23:56:42.889Z,102971.08
2019-03-21T23:59:12.827Z,102963.72
